M I D A S
Marine Information and Data Acquisition System
Tripno 58 of the Zeeleeuw from 2001-07-30 06:34:18 to 2001-07-30 16:30:00
Back to CruiseResearch ActivitiesStationsMapUnderway DataData graphs

EquipmentUnitsComment
TimeDGPSUTC
LatitudeDGPSDM.mWGS84
LongitudeDGPSDM.mWGS84
HeadingGyrodeg 
SOGDGPSknotsSpeed over ground
COGDGPSdegCourse over ground
DepthEcho soundermeters200 kHz
Missing or incorrect values are displayed as -999
Navigation data collected by the RV Zeeleeuw from 2001-07-30 06:34:18 to 2001-07-30 16:30:00
                                                                                    Next 1000 lines
Time Latitude Longitude Heading SOG COG Depth
2001-07-30 06:34:28 51°13.675 2°55.925 1   314.7 -999
2001-07-30 06:34:34 51°13.675 2°55.925 1   162.9 -999
2001-07-30 06:34:39 51°13.675 2°55.925 1   156.3 -999
2001-07-30 06:34:44 51°13.675 2°55.925 0.8   159.6 -999
2001-07-30 06:34:49 51°13.675 2°55.925 0.8   35.5 -999
2001-07-30 06:34:52 51°13.675 2°55.925 0.8   42 -999
2001-07-30 06:34:59 51°13.675 2°55.925 0.2   218.2 -999
2001-07-30 06:35:04 51°13.675 2°55.925 0.2   253.7 -999
2001-07-30 06:35:09 51°13.675 2°55.925 0.2   306.3 -999
2001-07-30 06:35:13 51°13.675 2°55.925 0.3   312.7 -999
2001-07-30 06:35:19 51°13.675 2°55.925 0.2   329.8 -999
2001-07-30 06:35:24 51°13.675 2°55.925 0.2   87.5 -999
2001-07-30 06:35:29 51°13.675 2°55.925     53 -999
2001-07-30 06:35:59 51°13.675 2°55.925 0.2   74.6 -999
2001-07-30 06:36:04 51°13.675 2°55.925 0.2   346.3 -999
2001-07-30 06:36:09 51°13.676 2°55.925 0.2   319 -999
2001-07-30 06:36:14 51°13.676 2°55.925 0.2   323 -999
2001-07-30 06:36:19 51°13.676 2°55.925 0.2   7.6 -999
2001-07-30 06:36:24 51°13.676 2°55.925 0.2   20.6 -999
2001-07-30 06:36:29 51°13.676 2°55.925     31.7 -999
2001-07-30 06:36:34 51°13.676 2°55.925 359.8   13.4 -999
2001-07-30 06:36:39 51°13.676 2°55.925 359.8   15 -999
2001-07-30 06:36:44 51°13.676 2°55.925 359.8   335.4 -999
2001-07-30 06:36:49 51°13.676 2°55.925 359.8   295.2 -999
2001-07-30 06:36:54 51°13.676 2°55.925     175 -999
2001-07-30 06:36:59 51°13.676 2°55.924 0.2   231.9 -999
2001-07-30 06:37:03 51°13.676 2°55.924 0.2   296.2 -999
2001-07-30 06:37:09 51°13.676 2°55.924 0.2   319.2 -999
2001-07-30 06:37:14 51°13.676 2°55.924 0.2   335.1 -999
2001-07-30 06:37:19 51°13.676 2°55.924 0.2   345 -999
2001-07-30 06:37:24 51°13.676 2°55.924     26.1 -999
2001-07-30 06:37:29 51°13.676 2°55.924 359.8   52.7 -999
2001-07-30 06:37:34 51°13.676 2°55.924 359.8   48.5 -999
2001-07-30 06:37:39 51°13.676 2°55.924 359.7   0.9 -999
2001-07-30 06:37:44 51°13.676 2°55.924 359.7   328.5 -999
2001-07-30 06:37:49 51°13.676 2°55.924 359.8   301.1 -999
2001-07-30 06:37:54 51°13.676 2°55.924     293.3 -999
2001-07-30 06:37:59 51°13.676 2°55.924     286.3 -999
2001-07-30 06:38:04 51°13.676 2°55.924 0.2   292.3 -999
2001-07-30 06:38:09 51°13.676 2°55.924 0.2   330.3 -999
2001-07-30 06:38:14 51°13.676 2°55.924 0.2   5.4 -999
2001-07-30 06:38:19 51°13.676 2°55.924     15.5 -999
2001-07-30 06:38:24 51°13.676 2°55.924 359.8   101.8 -999
2001-07-30 06:38:28 51°13.676 2°55.925 359.8 0.1 129.5 -999
2001-07-30 06:38:33 51°13.676 2°55.925 359.7 0.1 135 -999
2001-07-30 06:38:37 51°13.676 2°55.924 359.7 0.1 141.3 -999
2001-07-30 06:38:41 51°13.676 2°55.924 359.7   174.6 -999
2001-07-30 06:38:45 51°13.676 2°55.924 359.8   294.9 -999
2001-07-30 06:38:49 51°13.676 2°55.924 359.8   269.9 -999
2001-07-30 06:38:55 51°13.676 2°55.924     227 -999
2001-07-30 06:39:00 51°13.676 2°55.924     263.7 -999
2001-07-30 06:39:05 51°13.676 2°55.924 0.2   351.3 -999
2001-07-30 06:39:10 51°13.676 2°55.924 0.2   63.2 -999
2001-07-30 06:39:15 51°13.676 2°55.924     52 -999
2001-07-30 06:39:20 51°13.676 2°55.924 359.8   68.8 -999
2001-07-30 06:39:25 51°13.676 2°55.924 359.8   97.4 -999
2001-07-30 06:39:29 51°13.676 2°55.924 359.8   344.7 -999
2001-07-30 06:39:35 51°13.676 2°55.924 359.8   339.9 -999
2001-07-30 06:39:40 51°13.676 2°55.924     284.7 -999
2001-07-30 06:39:45 51°13.676 2°55.924     213.1 -999
2001-07-30 06:39:50 51°13.676 2°55.924     216.3 -999
2001-07-30 06:39:55 51°13.676 2°55.924 0.2   152.6 -999
2001-07-30 06:39:59 51°13.676 2°55.924 0.2   115.7 -999
2001-07-30 06:40:05 51°13.676 2°55.924     96.3 -999
2001-07-30 06:40:10 51°13.676 2°55.924     76.3 -999
2001-07-30 06:40:15 51°13.676 2°55.924 359.8   215.7 -999
2001-07-30 06:40:19 51°13.676 2°55.924 359.8   125.6 -999
2001-07-30 06:40:25 51°13.676 2°55.924 359.8   100.6 -999
2001-07-30 06:40:30 51°13.676 2°55.924 359.8   7 -999
2001-07-30 06:40:35 51°13.676 2°55.924 359.8   318.6 -999
2001-07-30 06:40:40 51°13.676 2°55.924     310.2 -999
2001-07-30 06:40:45 51°13.676 2°55.924 0.2   298 -999
2001-07-30 06:40:49 51°13.676 2°55.924 0.2   295.6 4.6
2001-07-30 06:40:53 51°13.676 2°55.924 0.2   302.3 4.6
2001-07-30 06:40:59 51°13.676 2°55.924 0.2   160.3 -999
2001-07-30 06:41:05 51°13.676 2°55.924     114.4 -999
2001-07-30 06:41:10 51°13.676 2°55.924     97.1 -999
2001-07-30 06:41:15 51°13.676 2°55.924     120.5 -999
2001-07-30 06:41:20 51°13.676 2°55.924 359.8   135.7 -999
2001-07-30 06:41:25 51°13.676 2°55.924 359.8   150.7 -999
2001-07-30 06:41:29 51°13.676 2°55.924     139.6 -999
2001-07-30 06:41:35 51°13.676 2°55.924     99.9 -999
2001-07-30 06:41:39 51°13.676 2°55.924     53.4 -999
2001-07-30 06:41:45 51°13.676 2°55.924     330.5 -999
2001-07-30 06:41:50 51°13.676 2°55.924     325.9 -999
2001-07-30 06:41:55 51°13.675 2°55.925     312.5 -999
2001-07-30 06:42:00 51°13.676 2°55.924     312.4 -999
2001-07-30 06:42:05 51°13.676 2°55.924     42.1 -999
2001-07-30 06:42:09 51°13.676 2°55.924     138.8 -999
2001-07-30 06:42:15 51°13.676 2°55.924 0.2   308.2 -999
2001-07-30 06:42:20 51°13.676 2°55.924     315.9 -999
2001-07-30 06:42:25 51°13.676 2°55.924     274 -999
2001-07-30 06:42:30 51°13.676 2°55.924     182.9 4.4
2001-07-30 06:42:35 51°13.676 2°55.924     141.5 -999
2001-07-30 06:42:40 51°13.676 2°55.924     141.7 -999
2001-07-30 06:42:45 51°13.676 2°55.924     147 -999
2001-07-30 06:42:49 51°13.676 2°55.924     155.6 -999
2001-07-30 06:42:55 51°13.676 2°55.924     180.4 -999
2001-07-30 06:43:00 51°13.676 2°55.924     318.9 -999
2001-07-30 06:43:05 51°13.676 2°55.924     320.6 -999
2001-07-30 06:43:09 51°13.676 2°55.924 0.2   317.8 -999
2001-07-30 06:43:15 51°13.676 2°55.924 0.2   243.9 -999
2001-07-30 06:43:20 51°13.676 2°55.924 0.2   258.8 -999
2001-07-30 06:43:25 51°13.676 2°55.924 0.2   329.2 -999
2001-07-30 06:43:29 51°13.676 2°55.924 0.2   345.9 -999
2001-07-30 06:43:35 51°13.676 2°55.924 0.2   57.1 -999
2001-07-30 06:43:39 51°13.676 2°55.924     20.9 4.4
2001-07-30 06:43:45 51°13.676 2°55.924     316.6 -999
2001-07-30 06:43:49 51°13.676 2°55.924     312.5 -999
2001-07-30 06:43:55 51°13.676 2°55.924     17.8 -999
2001-07-30 06:44:00 51°13.676 2°55.924     75 -999
2001-07-30 06:44:05 51°13.676 2°55.924     39.6 -999
2001-07-30 06:44:10 51°13.676 2°55.924 359.8   345.5 -999
2001-07-30 06:44:15 51°13.676 2°55.924 359.8   234.2 -999
2001-07-30 06:44:19 51°13.676 2°55.924     281 -999
2001-07-30 06:44:25 51°13.676 2°55.924     283 -999
2001-07-30 06:44:30 51°13.676 2°55.924 0.2   241 -999
2001-07-30 06:44:33 51°13.676 2°55.924 0.2   213.2 4.6
2001-07-30 06:44:39 51°13.676 2°55.924 0.2   266.3 4.6
2001-07-30 06:44:43 51°13.676 2°55.924 0.2   311.3 4.6
2001-07-30 06:44:49 51°13.676 2°55.924 0.2   230.5 -999
2001-07-30 06:44:55 51°13.676 2°55.924 0.2   209 3.8
2001-07-30 06:44:59 51°13.676 2°55.924 0.2   1.4 -999
2001-07-30 06:45:05 51°13.676 2°55.924     90.6 -999
2001-07-30 06:45:10 51°13.676 2°55.924     61.3 -999
2001-07-30 06:45:15 51°13.676 2°55.924     55.2 -999
2001-07-30 06:45:20 51°13.676 2°55.924 359.8   44.6 -999
2001-07-30 06:45:25 51°13.676 2°55.924 359.8   279.1 -999
2001-07-30 06:45:30 51°13.676 2°55.924 359.8   224.8 -999
2001-07-30 06:45:35 51°13.676 2°55.924     284 -999
2001-07-30 06:45:39 51°13.676 2°55.924     202.1 -999
2001-07-30 06:45:45 51°13.676 2°55.924     196.6 -999
2001-07-30 06:45:50 51°13.676 2°55.924     148.4 -999
2001-07-30 06:45:55 51°13.676 2°55.924 359.8   159.6 -999
2001-07-30 06:46:00 51°13.676 2°55.924 359.8   153 -999
2001-07-30 06:46:05 51°13.676 2°55.924 359.8   157.2 -999
2001-07-30 06:46:10 51°13.676 2°55.924 359.8   203.1 -999
2001-07-30 06:46:15 51°13.676 2°55.924 359.8   228.1 -999
2001-07-30 06:46:19 51°13.676 2°55.924     264.1 -999
2001-07-30 06:46:25 51°13.676 2°55.924     326.7 -999
2001-07-30 06:46:29 51°13.676 2°55.924 0.2   322.8 4.3
2001-07-30 06:46:35 51°13.676 2°55.924 0.2   355.3 -999
2001-07-30 06:46:40 51°13.676 2°55.924 0.3   346.9 -999
2001-07-30 06:46:45 51°13.676 2°55.924 0.3   144.1 4.5
2001-07-30 06:46:50 51°13.676 2°55.924 0.3   133.6 -999
2001-07-30 06:46:54 51°13.676 2°55.924 0.2   132.7 4.6
2001-07-30 06:46:59 51°13.676 2°55.925 1.5   37.1 4.4
2001-07-30 06:47:05 51°13.676 2°55.925 39.2   55 -999
2001-07-30 06:47:10 51°13.676 2°55.925 81.2   73.1 -999
2001-07-30 06:47:15 51°13.676 2°55.925 127   241.8 -999
2001-07-30 06:47:19 51°13.676 2°55.925 131.3   260.4 -999
2001-07-30 06:47:24 51°13.675 2°55.925 131.5   239 4.2
2001-07-30 06:47:29 51°13.675 2°55.924 131.2   250.6 -999
2001-07-30 06:47:35 51°13.676 2°55.924 130.5   85.4 -999
2001-07-30 06:47:39 51°13.676 2°55.924 130.5   46 -999
2001-07-30 06:47:45 51°13.676 2°55.924 130.3   34.3 -999
2001-07-30 06:47:50 51°13.676 2°55.924 130.2   31.1 -999
2001-07-30 06:47:55 51°13.676 2°55.924 130   31.9 -999
2001-07-30 06:47:59 51°13.676 2°55.924 130   19.4 4.6
2001-07-30 06:48:05 51°13.676 2°55.924 130   331 -999
2001-07-30 06:48:09 51°13.676 2°55.924 129.8   292.1 -999
2001-07-30 06:48:15 51°13.676 2°55.924 129.8   295.2 -999
2001-07-30 06:48:20 51°13.676 2°55.924 129.8   331.4 -999
2001-07-30 06:48:25 51°13.676 2°55.924 129.8   1.1 -999
2001-07-30 06:48:30 51°13.676 2°55.924 129.8   34.5 -999
2001-07-30 06:48:35 51°13.676 2°55.924 129.8   76.6 4.3
2001-07-30 06:48:39 51°13.676 2°55.924 129.8   48.4 -999
2001-07-30 06:48:45 51°13.676 2°55.924 129.8   203.1 -999
2001-07-30 06:48:50 51°13.676 2°55.924 129.8   184.2 -999
2001-07-30 06:48:55 51°13.676 2°55.924 129.8   95.8 -999
2001-07-30 06:48:59 51°13.676 2°55.924 129.8   347.8 -999
2001-07-30 06:49:05 51°13.676 2°55.924 129.8   260.1 -999
2001-07-30 06:49:10 51°13.676 2°55.924 130   265.2 -999
2001-07-30 06:49:15 51°13.676 2°55.924 130   255.9 -999
2001-07-30 06:49:19 51°13.676 2°55.924 130.2   218.6 4.3
2001-07-30 06:49:23 51°13.676 2°55.924 130.2   201.6 -999
2001-07-30 06:49:30 51°13.676 2°55.924 130.3   166.3 -999
2001-07-30 06:49:35 51°13.676 2°55.924 130.3   197.5 4.4
2001-07-30 06:49:39 51°13.676 2°55.924 130.5   171.9 -999
2001-07-30 06:49:45 51°13.676 2°55.924 130.5   102.6 -999
2001-07-30 06:49:50 51°13.676 2°55.924 130.5   125.8 -999
2001-07-30 06:49:55 51°13.676 2°55.924 130.3   116.3 -999
2001-07-30 06:49:59 51°13.676 2°55.924 130.3   57.3 -999
2001-07-30 06:50:05 51°13.676 2°55.924 130.3   329.4 -999
2001-07-30 06:50:10 51°13.676 2°55.924 130.3   312.8 -999
2001-07-30 06:50:15 51°13.676 2°55.924 130.5   277.9 4.6
2001-07-30 06:50:19 51°13.676 2°55.924 130.5   277.4 -999
2001-07-30 06:50:24 51°13.676 2°55.924 130.5   312.2 -999
2001-07-30 06:50:29 51°13.676 2°55.924 130.7   321 4.4
2001-07-30 06:50:35 51°13.677 2°55.924 130.7   260.6 -999
2001-07-30 06:50:40 51°13.677 2°55.924 130.7   260.3 -999
2001-07-30 06:50:44 51°13.677 2°55.924 130.5   194.5 -999
2001-07-30 06:50:49 51°13.677 2°55.924 130.5   265.2 4.8
2001-07-30 06:50:55 51°13.677 2°55.924 130.3   230.7 -999
2001-07-30 06:51:00 51°13.677 2°55.924 130.3   84.5 -999
2001-07-30 06:51:05 51°13.677 2°55.924 130.2   40.5 -999
2001-07-30 06:51:10 51°13.677 2°55.924 130.2   327.9 -999
2001-07-30 06:51:15 51°13.677 2°55.924 130.3   255.5 -999
2001-07-30 06:51:20 51°13.677 2°55.924 130.3   230.3 -999
2001-07-30 06:51:25 51°13.677 2°55.924 130.5   226.9 -999
2001-07-30 06:51:29 51°13.677 2°55.924 130.7   203.3 -999
2001-07-30 06:51:35 51°13.677 2°55.924 130.7   206.3 -999
2001-07-30 06:51:39 51°13.677 2°55.924 130.7   191.1 -999
2001-07-30 06:51:43 51°13.677 2°55.924 130.5   73.8 -999
2001-07-30 06:51:50 51°13.678 2°55.924 130.5   63.5 -999
2001-07-30 06:51:55 51°13.678 2°55.924 130.5   37.9 -999
2001-07-30 06:51:59 51°13.678 2°55.924 130.3   51.6 -999
2001-07-30 06:52:05 51°13.678 2°55.924 130.3   226.4 -999
2001-07-30 06:52:09 51°13.678 2°55.924 130.3   204.2 -999
2001-07-30 06:52:15 51°13.678 2°55.924 130.5   174.6 -999
2001-07-30 06:52:20 51°13.678 2°55.924 130.5   214.6 -999
2001-07-30 06:52:25 51°13.678 2°55.924 130.5   214.5 -999
2001-07-30 06:52:30 51°13.678 2°55.924 130.5   217.9 -999
2001-07-30 06:52:33 51°13.678 2°55.924 130.5   195.8 4.5
2001-07-30 06:52:39 51°13.678 2°55.924 130.5   117.9 18.6
2001-07-30 06:52:45 51°13.678 2°55.924 130.5   142.2 -999
2001-07-30 06:52:50 51°13.678 2°55.924 130.5   57.3 -999
2001-07-30 06:52:55 51°13.678 2°55.924 130.3   357.7 -999
2001-07-30 06:52:59 51°13.678 2°55.924 130.3   243.6 -999
2001-07-30 06:53:05 51°13.678 2°55.924 130.3   254.8 -999
2001-07-30 06:53:10 51°13.678 2°55.924 130.3   260.9 -999
2001-07-30 06:53:15 51°13.678 2°55.924 130.3   327.3 -999
2001-07-30 06:53:20 51°13.678 2°55.924 130.5   255.4 -999
2001-07-30 06:53:25 51°13.678 2°55.924 130.5   214.6 -999
2001-07-30 06:53:30 51°13.678 2°55.924 130.5   208.4 -999
2001-07-30 06:53:35 51°13.678 2°55.924 130.7   196.9 -999
2001-07-30 06:53:40 51°13.678 2°55.924 130.7   189.8 -999
2001-07-30 06:53:45 51°13.678 2°55.924 130.5   123.1 -999
2001-07-30 06:53:50 51°13.678 2°55.924 130.5   359.6 -999
2001-07-30 06:53:55 51°13.679 2°55.924 130.5   359.7 -999
2001-07-30 06:54:00 51°13.679 2°55.924 130.3   342.2 -999
2001-07-30 06:54:05 51°13.679 2°55.924 130.3   140.9 4.4
2001-07-30 06:54:09 51°13.679 2°55.924 130.3   133.3 -999
2001-07-30 06:54:15 51°13.679 2°55.924 130.3   222.2 -999
2001-07-30 06:54:19 51°13.679 2°55.924 130.3   259.2 -999
2001-07-30 06:54:25 51°13.679 2°55.924 130.3   260.3 -999
2001-07-30 06:54:30 51°13.678 2°55.924 130.5   258.9 -999
2001-07-30 06:54:35 51°13.678 2°55.924 130.5   277 -999
2001-07-30 06:54:40 51°13.678 2°55.924 130.5   264.3 -999
2001-07-30 06:54:45 51°13.678 2°55.924 130.3   201.7 4.4
2001-07-30 06:54:49 51°13.678 2°55.924 130.3   219.9 -999
2001-07-30 06:54:55 51°13.678 2°55.924 130.2   217.9 -999
2001-07-30 06:55:00 51°13.679 2°55.924 130.2   275.3 -999
2001-07-30 06:55:05 51°13.679 2°55.924 130.2   348.1 -999
2001-07-30 06:55:09 51°13.679 2°55.924 130.2   313.6 -999
2001-07-30 06:55:15 51°13.679 2°55.924 130.2   306.7 -999
2001-07-30 06:55:20 51°13.679 2°55.924 130.3   273.4 -999
2001-07-30 06:55:23 51°13.679 2°55.924 130.3   223.6 -999
2001-07-30 06:55:29 51°13.679 2°55.924 130.3   290.4 4.5
2001-07-30 06:55:33 51°13.678 2°55.924 130.3   61.2 -999
2001-07-30 06:55:40 51°13.679 2°55.924 130.5   36.6 -999
2001-07-30 06:55:45 51°13.678 2°55.924 130.5   189.7 -999
2001-07-30 06:55:49 51°13.678 2°55.924 130.5   156.9 -999
2001-07-30 06:55:55 51°13.678 2°55.924 130.5   104.1 -999
2001-07-30 06:56:00 51°13.678 2°55.924 130.5   108.4 -999
2001-07-30 06:56:05 51°13.678 2°55.924 130.5   246.2 -999
2001-07-30 06:56:09 51°13.678 2°55.924 130.5   237.1 -999
2001-07-30 06:56:15 51°13.678 2°55.924 130.5   305 -999
2001-07-30 06:56:20 51°13.677 2°55.924 130.5   326.2 -999
2001-07-30 06:56:25 51°13.677 2°55.924 130.3   357.7 -999
2001-07-30 06:56:29 51°13.677 2°55.924 130.3   113.2 -999
2001-07-30 06:56:35 51°13.676 2°55.924 130.3   145 -999
2001-07-30 06:56:40 51°13.676 2°55.924 130.3   158.8 -999
2001-07-30 06:56:43 51°13.676 2°55.924 130.3   136.5 -999
2001-07-30 06:56:50 51°13.676 2°55.924 130.3   81.8 -999
2001-07-30 06:56:55 51°13.676 2°55.924 130.3   248.1 -999
2001-07-30 06:57:00 51°13.676 2°55.924 130.3   192 -999
2001-07-30 06:57:05 51°13.676 2°55.924 130.3   96.8 -999
2001-07-30 06:57:09 51°13.676 2°55.924 130.2   103.4 -999
2001-07-30 06:57:15 51°13.675 2°55.924 130.2   43.3 -999
2001-07-30 06:57:19 51°13.675 2°55.924 130   198.1 -999
2001-07-30 06:57:24 51°13.675 2°55.924 130.2   234 -999
2001-07-30 06:57:30 51°13.675 2°55.924 130.2   286.1 -999
2001-07-30 06:57:35 51°13.675 2°55.924 130.3   283.2 -999
2001-07-30 06:57:39 51°13.675 2°55.924 130.3   201 -999
2001-07-30 06:57:45 51°13.675 2°55.924 130.5   198.6 -999
2001-07-30 06:57:50 51°13.675 2°55.924 130.5   192.3 -999
2001-07-30 06:57:55 51°13.675 2°55.924 130.5   194.1 -999
2001-07-30 06:57:59 51°13.675 2°55.924 130.5   121.8 -999
2001-07-30 06:58:05 51°13.675 2°55.924 130.5   12.2 -999
2001-07-30 06:58:10 51°13.675 2°55.924 130.5   51.5 -999
2001-07-30 06:58:15 51°13.676 2°55.924 130.3   62.3 -999
2001-07-30 06:58:19 51°13.676 2°55.924 130.3   46 -999
2001-07-30 06:58:25 51°13.676 2°55.924 130.3   53.9 -999
2001-07-30 06:58:30 51°13.676 2°55.924 130.2   227.4 -999
2001-07-30 06:58:35 51°13.676 2°55.924 130.2   316.4 -999
2001-07-30 06:58:39 51°13.676 2°55.924 130.3   295.4 -999
2001-07-30 06:58:45 51°13.676 2°55.924 130.3   289.7 -999
2001-07-30 06:58:50 51°13.676 2°55.924 130.3   247.2 -999
2001-07-30 06:58:55 51°13.676 2°55.924 130.5   183.4 -999
2001-07-30 06:58:59 51°13.676 2°55.924 130.5   102.8 -999
2001-07-30 06:59:05 51°13.676 2°55.924 130.3   55.7 -999
2001-07-30 06:59:10 51°13.676 2°55.924 130.3   338.3 4.7
2001-07-30 06:59:15 51°13.676 2°55.924 130.3   203.4 4.8
2001-07-30 06:59:29 51°13.676 2°55.924 130.2   232.2 4.6
2001-07-30 06:59:33 51°13.676 2°55.924 130.2   242.8 -999
2001-07-30 06:59:39 51°13.676 2°55.924 130.3   211 -999
2001-07-30 06:59:43 51°13.676 2°55.924 130.3   212.3 -999
2001-07-30 06:59:49 51°13.676 2°55.924 130.3   207.9 -999
2001-07-30 06:59:53 51°13.676 2°55.924 130.5   231 -999
2001-07-30 06:59:59 51°13.676 2°55.924 130.5   229.5 -999
2001-07-30 07:00:03 51°13.676 2°55.924 130.3   217.3 -999
2001-07-30 07:00:09 51°13.676 2°55.924 130.3   178.9 -999
2001-07-30 07:00:13 51°13.676 2°55.924 130.3   129.3 -999
2001-07-30 07:00:19 51°13.676 2°55.924 130.2   202.7 4.2
2001-07-30 07:00:23 51°13.676 2°55.924 130.2   206.4 -999
2001-07-30 07:00:29 51°13.676 2°55.924 130.2   176.1 -999
2001-07-30 07:00:33 51°13.676 2°55.924 130.3   172.1 -999
2001-07-30 07:00:39 51°13.676 2°55.924 130.3   167.6 -999
2001-07-30 07:00:43 51°13.676 2°55.924 130.3   151.8 -999
2001-07-30 07:00:49 51°13.676 2°55.924 130.3   170.1 -999
2001-07-30 07:00:53 51°13.676 2°55.924 130.2   179.6 -999
2001-07-30 07:00:59 51°13.676 2°55.924 130.2   126.9 -999
2001-07-30 07:01:04 51°13.676 2°55.924 130.2   104.9 -999
2001-07-30 07:01:09 51°13.676 2°55.924 130.2   185.2 -999
2001-07-30 07:01:13 51°13.676 2°55.924 130.2   197.3 -999
2001-07-30 07:01:19 51°13.676 2°55.924 130.3   206 -999
2001-07-30 07:01:24 51°13.676 2°55.924 130.3   201.3 -999
2001-07-30 07:01:29 51°13.676 2°55.924 130.3   233.1 -999
2001-07-30 07:01:33 51°13.676 2°55.924 130.5   234.6 -999
2001-07-30 07:01:39 51°13.676 2°55.924 130.5   165.9 -999
2001-07-30 07:01:44 51°13.676 2°55.924 130.5   303.6 -999
2001-07-30 07:01:49 51°13.676 2°55.924 130.5   110.8 -999
2001-07-30 07:01:53 51°13.676 2°55.924 130.3   112.9 -999
2001-07-30 07:01:59 51°13.676 2°55.924 130.3   181.6 -999
2001-07-30 07:02:03 51°13.676 2°55.924 130.3   193.3 -999
2001-07-30 07:02:09 51°13.676 2°55.924 130.3   205.2 -999
2001-07-30 07:02:13 51°13.676 2°55.924 130.3   308 4.6
2001-07-30 07:02:19 51°13.676 2°55.924 130.5   181.1 -999
2001-07-30 07:02:24 51°13.676 2°55.924 130.5   215.2 -999
2001-07-30 07:02:29 51°13.676 2°55.924 130.5   208 -999
2001-07-30 07:02:33 51°13.676 2°55.924 130.7   208.3 -999
2001-07-30 07:02:39 51°13.676 2°55.924 130.7   221.3 -999
2001-07-30 07:02:44 51°13.676 2°55.924 130.7   215.1 -999
2001-07-30 07:02:49 51°13.676 2°55.924 130.7   122.6 -999
2001-07-30 07:02:54 51°13.676 2°55.924 130.5   67.2 -999
2001-07-30 07:02:59 51°13.676 2°55.924 130.5   59.5 -999
2001-07-30 07:03:03 51°13.676 2°55.924 130.3   124.3 -999
2001-07-30 07:03:09 51°13.676 2°55.924 130.3   153.5 -999
2001-07-30 07:03:14 51°13.676 2°55.924 130.3   183.7 -999
2001-07-30 07:03:19 51°13.676 2°55.924 130.5   201.9 4.6
2001-07-30 07:03:23 51°13.676 2°55.924 130.7   205 -999
2001-07-30 07:03:29 51°13.676 2°55.924 130.7   206.6 4.8
2001-07-30 07:03:33 51°13.676 2°55.924 130.8   199.6 -999
2001-07-30 07:03:39 51°13.676 2°55.924 130.8   218.6 4.7
2001-07-30 07:03:43 51°13.676 2°55.924 130.8   185.9 4.7
2001-07-30 07:03:49 51°13.676 2°55.924 130.7   156.4 -999
2001-07-30 07:03:53 51°13.676 2°55.924 130.7   145.7 -999
2001-07-30 07:03:59 51°13.676 2°55.924 130.7   72.4 -999
2001-07-30 07:04:04 51°13.676 2°55.924 130.5   106.5 -999
2001-07-30 07:04:09 51°13.676 2°55.924 130.5   109 -999
2001-07-30 07:04:13 51°13.676 2°55.924 130.5   103.8 -999
2001-07-30 07:04:19 51°13.676 2°55.924 130.5   8.7 -999
2001-07-30 07:04:24 51°13.676 2°55.924 130.7   196.7 -999
2001-07-30 07:04:29 51°13.676 2°55.924 130.7   211 -999
2001-07-30 07:04:34 51°13.676 2°55.924 130.7   255.4 -999
2001-07-30 07:04:39 51°13.676 2°55.924 130.8   221.7 -999
2001-07-30 07:04:43 51°13.676 2°55.924 130.8   250.5 -999
2001-07-30 07:04:49 51°13.676 2°55.924 130.8   219.4 -999
2001-07-30 07:04:53 51°13.676 2°55.924 130.8   200.5 -999
2001-07-30 07:04:59 51°13.676 2°55.924 130.8   137.6 -999
2001-07-30 07:05:03 51°13.676 2°55.924 130.7   97.3 -999
2001-07-30 07:05:09 51°13.676 2°55.924 130.7   109.4 -999
2001-07-30 07:05:14 51°13.676 2°55.924 130.5   108.2 -999
2001-07-30 07:05:19 51°13.676 2°55.924 130.5   20 -999
2001-07-30 07:05:24 51°13.676 2°55.923 130.5   267 -999
2001-07-30 07:05:29 51°13.677 2°55.923 130.5   224.8 -999
2001-07-30 07:05:34 51°13.676 2°55.923 130.5   227.9 -999
2001-07-30 07:05:39 51°13.677 2°55.923 130.5   249.2 4.7
2001-07-30 07:05:43 51°13.676 2°55.923 130.7   268 -999
2001-07-30 07:05:49 51°13.676 2°55.923 130.7   234.2 -999
2001-07-30 07:05:53 51°13.676 2°55.923 130.8   195.7 -999
2001-07-30 07:05:59 51°13.676 2°55.923 130.8   196.6 -999
2001-07-30 07:06:03 51°13.676 2°55.923 130.8   204.5 -999
2001-07-30 07:06:09 51°13.676 2°55.923 130.7   110.9 -999
2001-07-30 07:06:13 51°13.676 2°55.923 130.7   126.3 -999
2001-07-30 07:06:19 51°13.676 2°55.923 130.5   148.2 -999
2001-07-30 07:06:23 51°13.676 2°55.923 130.5   41.4 -999
2001-07-30 07:06:29 51°13.676 2°55.923 130.5   345.7 -999
2001-07-30 07:06:33 51°13.676 2°55.923 130.5   247.8 10.8
2001-07-30 07:06:39 51°13.676 2°55.923 130.7   248.4 -999
2001-07-30 07:06:44 51°13.676 2°55.923 130.7   235.1 -999
2001-07-30 07:06:49 51°13.676 2°55.923 130.8   221.4 -999
2001-07-30 07:06:53 51°13.676 2°55.923 130.8   221.4 -999
2001-07-30 07:06:59 51°13.676 2°55.923 130.8   233.3 -999
2001-07-30 07:07:03 51°13.676 2°55.923 131   314.9 4.7
2001-07-30 07:07:09 51°13.676 2°55.923 131   196.5 -999
2001-07-30 07:07:13 51°13.676 2°55.923 130.8   210.9 -999
2001-07-30 07:07:19 51°13.676 2°55.923 130.8   132.1 -999
2001-07-30 07:07:24 51°13.676 2°55.923 130.7   141.8 -999
2001-07-30 07:07:29 51°13.676 2°55.923 130.5   154.4 4.8
2001-07-30 07:07:33 51°13.676 2°55.923 130.5   257.9 -999
2001-07-30 07:07:39 51°13.676 2°55.923 130.5   249.3 -999
2001-07-30 07:07:44 51°13.676 2°55.923 130.7   253 -999
2001-07-30 07:07:49 51°13.676 2°55.923 130.8   253.9 -999
2001-07-30 07:07:53 51°13.676 2°55.923 130.8   235 -999
2001-07-30 07:07:59 51°13.676 2°55.923 131   218.9 -999
2001-07-30 07:08:03 51°13.676 2°55.923 131   198 4.8
2001-07-30 07:08:09 51°13.676 2°55.923 131   255.2 4.9
2001-07-30 07:08:13 51°13.676 2°55.923 131   198.4 -999
2001-07-30 07:08:19 51°13.676 2°55.923 130.8   161 -999
2001-07-30 07:08:24 51°13.676 2°55.923 130.8   149.2 -999
2001-07-30 07:08:29 51°13.676 2°55.923 130.7   153.6 -999
2001-07-30 07:08:34 51°13.676 2°55.923 130.7   127.4 -999
2001-07-30 07:08:39 51°13.676 2°55.923 130.5   123.2 -999
2001-07-30 07:08:43 51°13.676 2°55.923 130.5   202.3 -999
2001-07-30 07:08:49 51°13.676 2°55.923 130.5   244.3 -999
2001-07-30 07:08:53 51°13.676 2°55.923 130.7   229.2 -999
2001-07-30 07:08:59 51°13.676 2°55.923 130.7   198.1 -999
2001-07-30 07:09:04 51°13.676 2°55.923 130.7   198.7 -999
2001-07-30 07:09:09 51°13.676 2°55.923 130.8   199.3 -999
2001-07-30 07:09:13 51°13.676 2°55.923 130.7   146.2 -999
2001-07-30 07:09:19 51°13.676 2°55.923 130.7   140.9 -999
2001-07-30 07:09:23 51°13.676 2°55.923 130.7   136.7 -999
2001-07-30 07:09:29 51°13.676 2°55.923 130.5   136.6 -999
2001-07-30 07:09:33 51°13.676 2°55.923 130.5   181.9 -999
2001-07-30 07:09:39 51°13.677 2°55.923 130.3   351.9 -999
2001-07-30 07:09:43 51°13.677 2°55.923 130.5   339.5 -999
2001-07-30 07:09:49 51°13.676 2°55.923 130.5   308.4 4.8
2001-07-30 07:09:53 51°13.676 2°55.923 130.7   215 -999
2001-07-30 07:09:59 51°13.676 2°55.923 130.7   183.2 -999
2001-07-30 07:10:03 51°13.676 2°55.923 130.7   165.8 -999
2001-07-30 07:10:09 51°13.676 2°55.923 130.7   219 -999
2001-07-30 07:10:13 51°13.676 2°55.923 130.5   153.8 -999
2001-07-30 07:10:19 51°13.676 2°55.923 130.5   13.7 -999
2001-07-30 07:10:23 51°13.676 2°55.923 130.7   14.4 4.4
2001-07-30 07:10:29 51°13.676 2°55.923 130.7   97.8 -999
2001-07-30 07:10:33 51°13.676 2°55.923 130.7   139 -999
2001-07-30 07:10:39 51°13.676 2°55.923 130.5   260.4 -999
2001-07-30 07:10:43 51°13.676 2°55.923 130.7   317.9 -999
2001-07-30 07:10:49 51°13.676 2°55.923 130.7   290.6 -999
2001-07-30 07:10:54 51°13.676 2°55.923 130.8   175.3 -999
2001-07-30 07:10:59 51°13.676 2°55.923 130.8   183.4 -999
2001-07-30 07:11:03 51°13.676 2°55.923 130.8   22 4.8
2001-07-30 07:11:09 51°13.676 2°55.923 130.8   156 -999
2001-07-30 07:11:13 51°13.676 2°55.923 130.7   161.7 -999
2001-07-30 07:11:19 51°13.676 2°55.923 130.7   54.3 -999
2001-07-30 07:11:23 51°13.676 2°55.923 130.7   159.3 4.9
2001-07-30 07:11:29 51°13.676 2°55.923 130.7   335.2 -999
2001-07-30 07:11:34 51°13.676 2°55.923 130.7   283.8 -999
2001-07-30 07:11:39 51°13.676 2°55.923 130.8   283.9 -999
2001-07-30 07:11:43 51°13.676 2°55.923 130.8   296.6 -999
2001-07-30 07:11:49 51°13.676 2°55.923 130.8   268 -999
2001-07-30 07:11:53 51°13.676 2°55.923 131   208.8 -999
2001-07-30 07:11:59 51°13.676 2°55.923 131   175.1 -999
2001-07-30 07:12:04 51°13.676 2°55.923 131   159.1 -999
2001-07-30 07:12:09 51°13.676 2°55.923 131   301.7 -999
2001-07-30 07:12:13 51°13.676 2°55.923 131   325.6 -999
2001-07-30 07:12:19 51°13.676 2°55.923 130.8   153.6 4.9
2001-07-30 07:12:23 51°13.676 2°55.923 130.8   161.1 -999
2001-07-30 07:12:29 51°13.676 2°55.924 130.8   191.9 4.9
2001-07-30 07:12:33 51°13.676 2°55.924 130.8   215.6 -999
2001-07-30 07:12:39 51°13.676 2°55.924 130.7   223 -999
2001-07-30 07:12:44 51°13.677 2°55.924 130.7   96.4 -999
2001-07-30 07:12:49 51°13.676 2°55.924 130.7   138.3 -999
2001-07-30 07:12:53 51°13.677 2°55.924 130.7   44.5 -999
2001-07-30 07:12:59 51°13.677 2°55.924 130.8   31.5 -999
2001-07-30 07:13:03 51°13.677 2°55.924 130.8   297.4 4.9
2001-07-30 07:13:09 51°13.677 2°55.924 130.8   218.4 -999
2001-07-30 07:13:14 51°13.676 2°55.924 130.8   165 -999
2001-07-30 07:13:19 51°13.676 2°55.924 130.8   170.7 -999
2001-07-30 07:13:23 51°13.677 2°55.924 130.8   172 -999
2001-07-30 07:13:29 51°13.677 2°55.924 130.8   108.1 -999
2001-07-30 07:13:33 51°13.677 2°55.924 130.8   7.5 -999
2001-07-30 07:13:39 51°13.677 2°55.924 130.8   357.4 -999
2001-07-30 07:13:44 51°13.677 2°55.924 130.7   1.6 -999
2001-07-30 07:13:49 51°13.677 2°55.924 130.7   346.1 -999
2001-07-30 07:13:53 51°13.677 2°55.924 130.7   341.1 -999
2001-07-30 07:13:59 51°13.677 2°55.924 130.7   0.9 -999
2001-07-30 07:14:03 51°13.677 2°55.924 130.7   339.2 -999
2001-07-30 07:14:09 51°13.677 2°55.924 130.8   301.8 -999
2001-07-30 07:14:13 51°13.677 2°55.924 130.8   325.8 -999
2001-07-30 07:14:19 51°13.677 2°55.924 130.8   61.1 4.9
2001-07-30 07:14:23 51°13.677 2°55.924 130.8   174.1 4.9
2001-07-30 07:14:29 51°13.676 2°55.924 130.8   152.1 -999
2001-07-30 07:14:33 51°13.676 2°55.924 130.7 0.1 159.5 -999
2001-07-30 07:14:39 51°13.677 2°55.924 130.7   176.4 -999
2001-07-30 07:14:43 51°13.677 2°55.924 130.7   312 -999
2001-07-30 07:14:49 51°13.677 2°55.924 130.7   346.4 -999
2001-07-30 07:14:54 51°13.677 2°55.924 130.7   319.3 -999
2001-07-30 07:14:59 51°13.677 2°55.924 130.8   183.9 5
2001-07-30 07:15:03 51°13.677 2°55.924 130.8   194.9 -999
2001-07-30 07:15:09 51°13.677 2°55.924 130.8   204 4.5
2001-07-30 07:15:13 51°13.677 2°55.924 131   191.2 4.8
2001-07-30 07:15:17 51°13.677 2°55.924 131   305.1 4.9
2001-07-30 07:15:23 51°13.676 2°55.924 131   195.9 -999
2001-07-30 07:15:29 51°13.677 2°55.924 130.8   141.7 4.7
2001-07-30 07:15:33 51°13.676 2°55.924 130.8   96.9 -999
2001-07-30 07:15:39 51°13.676 2°55.924 130.8   128.5 -999
2001-07-30 07:15:43 51°13.676 2°55.924 130.8   193.1 4.9
2001-07-30 07:15:49 51°13.676 2°55.924 130.8   295.7 -999
2001-07-30 07:15:54 51°13.676 2°55.924 131   244.5 -999
2001-07-30 07:15:59 51°13.676 2°55.924 131   242.3 -999
2001-07-30 07:16:03 51°13.676 2°55.924 131   340.5 -999
2001-07-30 07:16:09 51°13.676 2°55.924 131   194.3 -999
2001-07-30 07:16:13 51°13.676 2°55.924 130.8   208.3 -999
2001-07-30 07:16:19 51°13.676 2°55.924 130.8   16.9 -999
2001-07-30 07:16:23 51°13.676 2°55.924 130.8   34.6 4.6
2001-07-30 07:16:29 51°13.676 2°55.924 130.8   13.5 4.8
2001-07-30 07:16:33 51°13.676 2°55.924 131   18.4 -999
2001-07-30 07:16:39 51°13.676 2°55.924 131   7.5 -999
2001-07-30 07:16:43 51°13.676 2°55.924 131   326 -999
2001-07-30 07:16:49 51°13.676 2°55.924 131   347.7 -999
2001-07-30 07:16:54 51°13.676 2°55.924 131   339.6 -999
2001-07-30 07:16:59 51°13.676 2°55.924 131   160.6 -999
2001-07-30 07:17:03 51°13.676 2°55.924 131   165.1 -999
2001-07-30 07:17:09 51°13.676 2°55.924 131   194.5 -999
2001-07-30 07:17:14 51°13.676 2°55.924 131   249.7 -999
2001-07-30 07:17:19 51°13.676 2°55.924 131   348.1 -999
2001-07-30 07:17:24 51°13.676 2°55.924 131.2   253.9 -999
2001-07-30 07:17:29 51°13.676 2°55.924 131.2   208.9 4.8
2001-07-30 07:17:33 51°13.676 2°55.924 131.2   197.6 -999
2001-07-30 07:17:39 51°13.676 2°55.924 131.2   216.8 -999
2001-07-30 07:17:44 51°13.676 2°55.924 131.2   265.5 -999
2001-07-30 07:17:49 51°13.676 2°55.924 131.3   307.7 -999
2001-07-30 07:17:53 51°13.676 2°55.924 131.3   315 -999
2001-07-30 07:17:59 51°13.676 2°55.924 131.3   113.1 -999
2001-07-30 07:18:03 51°13.676 2°55.924 131.5   169.5 -999
2001-07-30 07:18:09 51°13.676 2°55.924 131.5   201.7 -999
2001-07-30 07:18:13 51°13.676 2°55.924 131.7   214.3 -999
2001-07-30 07:18:19 51°13.676 2°55.924 131.7   193.1 -999
2001-07-30 07:18:23 51°13.676 2°55.924 131.7   180.5 4.9
2001-07-30 07:18:29 51°13.676 2°55.924 131.7   123.5 4.9
2001-07-30 07:18:33 51°13.676 2°55.924 131.7   87 -999
2001-07-30 07:18:39 51°13.676 2°55.924 131.7   231.4 -999
2001-07-30 07:18:43 51°13.676 2°55.924 131.7   212.4 -999
2001-07-30 07:18:49 51°13.676 2°55.924 131.7   37.7 -999
2001-07-30 07:18:53 51°13.676 2°55.924 131.5   40.8 -999
2001-07-30 07:18:59 51°13.676 2°55.924 131.5   146.8 -999
2001-07-30 07:19:03 51°13.676 2°55.924 131.5   214.4 -999
2001-07-30 07:19:09 51°13.676 2°55.924 131.5   202.9 -999
2001-07-30 07:19:13 51°13.676 2°55.924 131.5   176.5 -999
2001-07-30 07:19:19 51°13.676 2°55.924 131.5   112.2 -999
2001-07-30 07:19:23 51°13.676 2°55.924 131.3   132 -999
2001-07-30 07:19:29 51°13.676 2°55.924 131.3   118.7 -999
2001-07-30 07:19:33 51°13.676 2°55.924 131.5   214.6 4.6
2001-07-30 07:19:39 51°13.676 2°55.924 131.7   229.2 -999
2001-07-30 07:19:43 51°13.676 2°55.924 131.8   279.1 -999
2001-07-30 07:19:49 51°13.676 2°55.923 131.8   343.9 -999
2001-07-30 07:19:53 51°13.676 2°55.923 131.7   343.6 -999
2001-07-30 07:19:59 51°13.676 2°55.923 131.7   29.2 -999
2001-07-30 07:20:03 51°13.676 2°55.924 131.7   58 5
2001-07-30 07:20:09 51°13.676 2°55.924 131.7   159.8 -999
2001-07-30 07:20:13 51°13.676 2°55.924 131.7   163.7 4.9
2001-07-30 07:20:18 51°13.676 2°55.924 131.7   171.5 5
2001-07-30 07:20:23 51°13.676 2°55.924 131.7   25.2 -999
2001-07-30 07:20:29 51°13.676 2°55.924 131.7   319.1 -999
2001-07-30 07:20:34 51°13.676 2°55.924 131.7   312.2 -999
2001-07-30 07:20:39 51°13.676 2°55.924 131.7   346.7 -999
2001-07-30 07:20:44 51°13.676 2°55.923 131.7   169.3 -999
2001-07-30 07:20:49 51°13.676 2°55.924 131.7   190.8 -999
2001-07-30 07:20:54 51°13.676 2°55.924 131.7   343.9 -999
2001-07-30 07:20:59 51°13.676 2°55.923 131.7   351.7 -999
2001-07-30 07:21:04 51°13.676 2°55.923 131.7   14.6 -999
2001-07-30 07:21:09 51°13.676 2°55.923 131.8   198.5 -999
2001-07-30 07:21:13 51°13.676 2°55.923 131.8   244 -999
2001-07-30 07:21:19 51°13.676 2°55.923 131.8   222.7 -999
2001-07-30 07:21:24 51°13.676 2°55.924 131.8   184.9 -999
2001-07-30 07:21:29 51°13.676 2°55.924 131.8   194.7 -999
2001-07-30 07:21:33 51°13.676 2°55.924 131.8   185.1 -999
2001-07-30 07:21:39 51°13.676 2°55.924 131.8   82.4 -999
2001-07-30 07:21:43 51°13.676 2°55.924 131.8   60.7 -999
2001-07-30 07:21:49 51°13.676 2°55.924 131.8   28.9 -999
2001-07-30 07:21:53 51°13.676 2°55.924 131.8   359 -999
2001-07-30 07:21:59 51°13.676 2°55.924 131.8   6.1 -999
2001-07-30 07:22:03 51°13.676 2°55.924 131.8   250.5 -999
2001-07-30 07:22:09 51°13.676 2°55.924 131.8   335 -999
2001-07-30 07:22:13 51°13.676 2°55.924 131.8   346.2 -999
2001-07-30 07:22:19 51°13.676 2°55.924 131.8   11.7 -999
2001-07-30 07:22:23 51°13.676 2°55.924 131.7   22.4 4.7
2001-07-30 07:22:29 51°13.676 2°55.924 131.7   30.2 -999
2001-07-30 07:22:34 51°13.676 2°55.924 131.7   58.2 -999
2001-07-30 07:22:39 51°13.676 2°55.924 131.7   64.2 -999
2001-07-30 07:22:43 51°13.676 2°55.924 131.7   74.9 -999
2001-07-30 07:22:49 51°13.676 2°55.924 131.5   109.5 -999
2001-07-30 07:22:53 51°13.676 2°55.924 131.3   112.6 -999
2001-07-30 07:22:59 51°13.676 2°55.925 131 0.1 125.2 5
2001-07-30 07:23:03 51°13.676 2°55.925 130.8 0.2 123 5
2001-07-30 07:23:09 51°13.676 2°55.925 130.5 0.2 124 -999
2001-07-30 07:23:13 51°13.676 2°55.926 130.3 0.2 121.4 4.9
2001-07-30 07:23:19 51°13.676 2°55.926 130.2 0.2 114.7 -999
2001-07-30 07:23:23 51°13.676 2°55.926 129.7 0.1 109.2 -999
2001-07-30 07:23:29 51°13.676 2°55.926 129   67.9 4.8
2001-07-30 07:23:33 51°13.676 2°55.926 128.5   7.2 -999
2001-07-30 07:23:39 51°13.675 2°55.926 128.3   261.6 -999
2001-07-30 07:23:43 51°13.675 2°55.926 128   188.8 -999
2001-07-30 07:23:49 51°13.675 2°55.926 127.7   127 -999
2001-07-30 07:23:53 51°13.675 2°55.926 127   113.5 -999
2001-07-30 07:23:59 51°13.675 2°55.926 126.3   146.8 5.1
2001-07-30 07:24:03 51°13.675 2°55.927 125.5 0.1 155.4 -999
2001-07-30 07:24:09 51°13.675 2°55.927 124.5 0.1 159.3 -999
2001-07-30 07:24:14 51°13.675 2°55.927 123.2 0.1 162.8 -999
2001-07-30 07:24:19 51°13.675 2°55.927 122.2 0.1 164.8 4.8
2001-07-30 07:24:24 51°13.675 2°55.927 120.7 0.1 167.8 -999
2001-07-30 07:24:29 51°13.675 2°55.927 119.5 0.1 168 -999
2001-07-30 07:24:33 51°13.674 2°55.927 118 0.1 167.1 -999
2001-07-30 07:24:39 51°13.674 2°55.927 116.2 0.1 159 -999
2001-07-30 07:24:43 51°13.674 2°55.927 114.7 0.1 157.2 5.1
2001-07-30 07:24:49 51°13.674 2°55.927 113 0.1 151 5.2
2001-07-30 07:24:53 51°13.674 2°55.927 111.2 0.1 156.2 -999
2001-07-30 07:24:59 51°13.674 2°55.927 109.2 0.1 154.2 -999
2001-07-30 07:25:03 51°13.673 2°55.928 107.3 0.1 148 -999
2001-07-30 07:25:09 51°13.673 2°55.928 105.3 0.1 161 -999
2001-07-30 07:25:13 51°13.673 2°55.928 103.5 0.1 180 -999
2001-07-30 07:25:19 51°13.673 2°55.928 101.7 0.1 186.7 5.1
2001-07-30 07:25:23 51°13.673 2°55.927 100 0.1 189 -999
2001-07-30 07:25:29 51°13.673 2°55.927 98.8 0.1 224.5 5.2
2001-07-30 07:25:33 51°13.673 2°55.927 97.5 0.1 234.5 5.1
2001-07-30 07:25:37 51°13.672 2°55.927 96.5 0.1 239.3 5.1
2001-07-30 07:25:43 51°13.673 2°55.926 95.5 0.2 278.5 5
2001-07-30 07:25:49 51°13.672 2°55.925 94.5 0.4 274.7 -999
2001-07-30 07:25:53 51°13.672 2°55.924 93.7 0.6 273.4 -999
2001-07-30 07:25:59 51°13.672 2°55.921 92.8 0.9 271.4 5.1
2001-07-30 07:26:03 51°13.672 2°55.919 92.3 1 270.5 5.4
2001-07-30 07:26:07 51°13.672 2°55.917 92.2 1.1 269.6 5.8
2001-07-30 07:26:13 51°13.672 2°55.914 92 1.1 271.2 6.4
2001-07-30 07:26:17 51°13.672 2°55.912 91.8 1.3 270.3 1.3
2001-07-30 07:26:23 51°13.672 2°55.907 91.7 1.5 270.5 -999
2001-07-30 07:26:29 51°13.672 2°55.902 91.5 1.9 269.8 -999
2001-07-30 07:26:34 51°13.672 2°55.896 91.5 2.2 269.9 -999
2001-07-30 07:26:39 51°13.672 2°55.89 91.5 2.6 269.5 -999
2001-07-30 07:26:44 51°13.672 2°55.884 91.5 2.8 269.7 -999
2001-07-30 07:26:49 51°13.672 2°55.877 91.5 3.1 269.7 -999
2001-07-30 07:26:54 51°13.672 2°55.869 91.3 3.3 269.4 -999
2001-07-30 07:26:59 51°13.672 2°55.861 91 3.6 269.4 -999
2001-07-30 07:27:04 51°13.672 2°55.853 91 3.7 269.4 -999
2001-07-30 07:27:09 51°13.672 2°55.845 91 3.6 269.3 -999
2001-07-30 07:27:13 51°13.672 2°55.839 91 3.5 269.5 -999
2001-07-30 07:27:19 51°13.672 2°55.83 91 3.4 269.6 -999
2001-07-30 07:27:23 51°13.672 2°55.824 90.8 3.3 269.4 -999
2001-07-30 07:27:29 51°13.672 2°55.815 90.7 3.3 269.3 7.8
2001-07-30 07:27:33 51°13.672 2°55.81 90.5 3.3 269.3 7.7
2001-07-30 07:27:39 51°13.672 2°55.801 90 3.2 269.2 -999
2001-07-30 07:27:44 51°13.672 2°55.794 89.7 3.1 269.3 -999
2001-07-30 07:27:49 51°13.672 2°55.788 89.3 3 269.6 -999
2001-07-30 07:27:53 51°13.672 2°55.783 88.8 2.9 269.1 -999
2001-07-30 07:27:59 51°13.672 2°55.776 88.3 2.8 268.5 -999
2001-07-30 07:28:03 51°13.672 2°55.771 87.8 2.7 268.8 8
2001-07-30 07:28:07 51°13.672 2°55.766 87.3 2.6 268.4 7.6
2001-07-30 07:28:13 51°13.672 2°55.76 86.8 2.5 268.3 7.6
2001-07-30 07:28:17 51°13.672 2°55.755 86.2 2.5 268.1 7.4
2001-07-30 07:28:23 51°13.672 2°55.749 85.7 2.3 267.6 7.5
2001-07-30 07:28:28 51°13.672 2°55.746 84.5 2 268.5 7.6
2001-07-30 07:28:33 51°13.672 2°55.745 81.7 1.1 273.8 7.6
2001-07-30 07:28:38 51°13.673 2°55.745 76.7 0.6 294.3 7.6
2001-07-30 07:28:43 51°13.674 2°55.746 70.5 0.7 26.2 7.6
2001-07-30 07:28:47 51°13.675 2°55.748 62.7 1.4 42.4 7.7
2001-07-30 07:28:53 51°13.679 2°55.753 53.5 2.3 41.9 8.1
2001-07-30 07:28:59 51°13.684 2°55.758 43.5 3.1 36.1 10.7
2001-07-30 07:29:03 51°13.688 2°55.761 33.8 3.8 28 11.5
2001-07-30 07:29:07 51°13.693 2°55.763 23.5 4.4 20.5 12.4
2001-07-30 07:29:13 51°13.702 2°55.764 13.3 5.1 8.9 11.6
2001-07-30 07:29:19 51°13.712 2°55.762 2.2 5.6 359.2 11.1
2001-07-30 07:29:23 51°13.718 2°55.76 352.5 5.9 350.1 10.3
2001-07-30 07:29:27 51°13.725 2°55.756 345.3 6 344.3 8.5
2001-07-30 07:29:33 51°13.734 2°55.75 339.8 6 337.9 8.8
2001-07-30 07:29:37 51°13.74 2°55.745 336 6 334 7.3
2001-07-30 07:29:43 51°13.749 2°55.736 332.8 6.1 330.9 7.3
2001-07-30 07:29:47 51°13.755 2°55.73 330.7 6.3 329 7.2
2001-07-30 07:29:53 51°13.764 2°55.72 329.3 6.7 326.9 6.8
2001-07-30 07:29:59 51°13.774 2°55.709 328.5 6.9 326.1 6.2
2001-07-30 07:30:03 51°13.781 2°55.702 328.2 7.2 325.2 7.2
2001-07-30 07:30:07 51°13.788 2°55.694 327.5 7.4 324.8 7.4
2001-07-30 07:30:13 51°13.797 2°55.683 327.2 7.4 324.3 7.5
2001-07-30 07:30:17 51°13.804 2°55.675 327.3 7.4 324.3 7.6
2001-07-30 07:30:23 51°13.814 2°55.664 327.8 7.4 324.7 8
2001-07-30 07:30:27 51°13.821 2°55.657 329 7.4 325.6 8.6
2001-07-30 07:30:33 51°13.832 2°55.646 330.5 7.6 326.8 8.6
2001-07-30 07:30:37 51°13.839 2°55.639 332.3 7.7 328.5 8.5
2001-07-30 07:30:43 51°13.851 2°55.629 334.5 7.8 330.6 8.4
2001-07-30 07:30:47 51°13.859 2°55.622 336.8 7.9 332.7 8.4
2001-07-30 07:30:53 51°13.871 2°55.614 339.2 8.1 335.4 8.2
2001-07-30 07:30:57 51°13.879 2°55.608 340.5 8.2 336.7 8.5
2001-07-30 07:31:03 51°13.892 2°55.599 341 8.3 337.4 8.4
2001-07-30 07:31:07 51°13.901 2°55.594 340.8 8.4 337.5 8.2
2001-07-30 07:31:13 51°13.914 2°55.585 340.5 8.5 337.3 8.3
2001-07-30 07:31:18 51°13.925 2°55.578 340.5 8.5 337.2 8.5
2001-07-30 07:31:23 51°13.936 2°55.57 340.7 8.6 337.2 8.5
2001-07-30 07:31:27 51°13.944 2°55.564 340.7 8.6 337.2 -999
2001-07-30 07:31:33 51°13.958 2°55.555 341 8.7 337.4 8.5
2001-07-30 07:31:37 51°13.967 2°55.549 341.3 8.7 337.6 8.5
2001-07-30 07:31:43 51°13.98 2°55.54 341.2 8.8 337.6 8.5
2001-07-30 07:31:47 51°13.989 2°55.535 341.3 8.8 337.7 8.6
2001-07-30 07:31:53 51°14.003 2°55.526 342.2 8.8 338.3 8.6
2001-07-30 07:31:58 51°14.015 2°55.519 342.5 8.8 338.6 8.5
2001-07-30 07:32:03 51°14.026 2°55.512 341.8 8.9 338.3 8.5
2001-07-30 07:32:07 51°14.035 2°55.506 341 8.9 337.7 8.5
2001-07-30 07:32:13 51°14.049 2°55.496 340.2 8.9 336.6 8.5
2001-07-30 07:32:19 51°14.062 2°55.486 339.2 8.9 335.7 8.5
2001-07-30 07:32:23 51°14.071 2°55.479 338.5 8.9 334.7 8.5
2001-07-30 07:32:27 51°14.08 2°55.473 338 8.8 334.4 8.5
2001-07-30 07:32:33 51°14.092 2°55.463 337.8 8.6 334.3 8.5
2001-07-30 07:32:37 51°14.1 2°55.456 337.8 8.4 334.1 8.4
2001-07-30 07:32:43 51°14.112 2°55.447 337.3 8.1 333.6 8.4
2001-07-30 07:32:47 51°14.12 2°55.44 336.2 8 333 8.5
2001-07-30 07:32:53 51°14.132 2°55.43 335.2 8 332 8.4
2001-07-30 07:32:57 51°14.14 2°55.423 334.7 8.1 331.3 8.4
2001-07-30 07:33:03 51°14.152 2°55.412 334.2 8.3 330.6 8.4
2001-07-30 07:33:07 51°14.16 2°55.405 333.5 8.4 330.1 8.4
2001-07-30 07:33:13 51°14.173 2°55.393 332.5 8.6 329.2 8.4
2001-07-30 07:33:17 51°14.181 2°55.385 331.7 8.7 328.4 8.4
2001-07-30 07:33:23 51°14.193 2°55.372 330.7 8.8 327.4 8.5
2001-07-30 07:33:27 51°14.202 2°55.363 329.5 8.9 326.3 8.5
2001-07-30 07:33:33 51°14.214 2°55.349 327.8 9 324.6 8.5
2001-07-30 07:33:37 51°14.222 2°55.339 326.2 9.1 323.4 8.5
2001-07-30 07:33:43 51°14.234 2°55.323 324.7 9.1 321.5 8.5
2001-07-30 07:33:48 51°14.243 2°55.31 322.8 9.1 320.3 8.5
2001-07-30 07:33:53 51°14.253 2°55.297 320.8 9.1 318.3 8.5
2001-07-30 07:33:57 51°14.26 2°55.285 318.2 9.1 316.2 8.5
2001-07-30 07:34:03 51°14.27 2°55.268 315.8 9.1 314.1 8.5
2001-07-30 07:34:07 51°14.277 2°55.256 314.3 9.1 312.5 8.4
2001-07-30 07:34:13 51°14.286 2°55.237 312.5 9.1 310.4 8.4
2001-07-30 07:34:18 51°14.294 2°55.221 310.8 9.1 309.2 8.3
2001-07-30 07:34:23 51°14.302 2°55.206 310.8 9.1 308.5 8.3
2001-07-30 07:34:29 51°14.311 2°55.187 311 9.1 308.5 8.3
2001-07-30 07:34:33 51°14.317 2°55.174 310.8 9.1 308.5 8.3
2001-07-30 07:34:37 51°14.324 2°55.162 310.7 9.1 308.3 8.3
2001-07-30 07:34:43 51°14.333 2°55.143 310.3 9.1 308.1 8.3
2001-07-30 07:34:47 51°14.339 2°55.13 310.5 9.1 307.7 8.3
2001-07-30 07:34:53 51°14.349 2°55.111 310.8 9.1 307.8 8.4
2001-07-30 07:34:57 51°14.355 2°55.098 311.3 9.1 308.4 8.4
2001-07-30 07:35:03 51°14.365 2°55.08 312.5 9.1 310.3 8.7
2001-07-30 07:35:07 51°14.372 2°55.069 315.7 9.1 314.6 8.9
2001-07-30 07:35:13 51°14.385 2°55.055 321.2 9.3 321 8.8
2001-07-30 07:35:19 51°14.399 2°55.042 325.3 9.6 328 8.7
2001-07-30 07:35:23 51°14.409 2°55.034 328.2 9.8 330.7 8.7
2001-07-30 07:35:27 51°14.419 2°55.026 329.7 10 332.6 8.4
2001-07-30 07:35:33 51°14.435 2°55.014 330.7 10.3 333.6 8.2
2001-07-30 07:35:37 51°14.445 2°55.005 330.7 10.5 333.9 8.3
2001-07-30 07:35:43 51°14.462 2°54.993 332.5 10.7 334.4 8
2001-07-30 07:35:47 51°14.473 2°54.986 334.8 10.9 336.4 7.9
2001-07-30 07:35:53 51°14.49 2°54.976 337.7 11.1 338.8 7.9
2001-07-30 07:35:57 51°14.502 2°54.969 339.3 11.3 340.6 7.8
2001-07-30 07:36:03 51°14.52 2°54.959 339 11.4 341 7.8
2001-07-30 07:36:09 51°14.538 2°54.948 337.8 11.4 340.5 7.8
2001-07-30 07:36:13 51°14.55 2°54.941 336.2 11.5 338.9 7.8
2001-07-30 07:36:17 51°14.562 2°54.932 334.8 11.5 337.3 7.8
2001-07-30 07:36:23 51°14.579 2°54.92 334.5 11.5 336.6 7.8
2001-07-30 07:36:27 51°14.591 2°54.912 335.2 11.5 336.9 7.8
2001-07-30 07:36:33 51°14.609 2°54.901 335.2 11.6 337.6 7.7
2001-07-30 07:36:38 51°14.624 2°54.891 335 11.6 337.5 7.7
2001-07-30 07:36:43 51°14.638 2°54.881 334.3 11.6 337.1 7.7
2001-07-30 07:36:47 51°14.65 2°54.872 333 11.6 335.8 7.7
2001-07-30 07:36:53 51°14.667 2°54.858 331 11.6 334.2 7.7
2001-07-30 07:36:57 51°14.679 2°54.849 330 11.5 333 7.6
2001-07-30 07:37:03 51°14.696 2°54.835 330.2 11.5 332.9 7.6
2001-07-30 07:37:09 51°14.713 2°54.822 330.3 11.5 333.1 7.6
2001-07-30 07:37:13 51°14.724 2°54.812 330.5 11.5 333.3 7.6
2001-07-30 07:37:17 51°14.736 2°54.803 330.2 11.6 333.3 7.6
2001-07-30 07:37:23 51°14.753 2°54.789 330 11.6 333.5 7.6
2001-07-30 07:37:27 51°14.764 2°54.78 330.5 11.6 333.8 7.6
2001-07-30 07:37:33 51°14.782 2°54.767 331 11.6 334.5 7.6
2001-07-30 07:37:38 51°14.797 2°54.756 331.5 11.7 334.8 7.6
2001-07-30 07:37:43 51°14.812 2°54.745 331.3 11.8 334.4 7.7
2001-07-30 07:37:47 51°14.823 2°54.735 330.8 11.9 333.9 7.7
2001-07-30 07:37:53 51°14.841 2°54.722 331.3 11.9 334.3 7.7
2001-07-30 07:37:57 51°14.854 2°54.713 332 12 335 7.7
2001-07-30 07:38:03 51°14.872 2°54.7 332.3 12.1 335.5 7.6
2001-07-30 07:38:09 51°14.891 2°54.686 331.8 12.2 335.4 7.6
2001-07-30 07:38:13 51°14.903 2°54.677 331.7 12.2 335.1 7.6
2001-07-30 07:38:17 51°14.915 2°54.668 331.8 12.2 335.1 7.6
2001-07-30 07:38:23 51°14.934 2°54.654 331.8 12.3 335.1 7.5
2001-07-30 07:38:27 51°14.946 2°54.645 332 12.3 334.7 7.3
2001-07-30 07:38:33 51°14.964 2°54.63 331.5 12.2 333.9 7.3
2001-07-30 07:38:38 51°14.979 2°54.618 330.5 12.2 333.2 7.2
2001-07-30 07:38:43 51°14.994 2°54.606 330.7 12.2 332.8 7.1
2001-07-30 07:38:49 51°15.012 2°54.591 330.8 12.2 333.3 7
2001-07-30 07:38:53 51°15.025 2°54.582 331.3 12.3 333.9 6.9
2001-07-30 07:38:57 51°15.037 2°54.573 331.8 12.3 334.5 6.9
2001-07-30 07:39:03 51°15.056 2°54.558 332.3 12.5 334.7 6.8
2001-07-30 07:39:09 51°15.075 2°54.543 331.2 12.6 334.3 6.8
2001-07-30 07:39:13 51°15.087 2°54.532 329 12.8 332.2 6.8
2001-07-30 07:39:17 51°15.099 2°54.52 327.2 12.8 330.2 6.8
2001-07-30 07:39:23 51°15.118 2°54.503 326.3 12.9 329.2 6.9
2001-07-30 07:39:27 51°15.13 2°54.491 326.3 12.9 329 6.9
2001-07-30 07:39:33 51°15.149 2°54.474 327.7 13 330.2 7
2001-07-30 07:39:38 51°15.166 2°54.461 330.2 13.1 331.8 7
2001-07-30 07:39:43 51°15.182 2°54.449 332.7 13.2 334.1 7.1
2001-07-30 07:39:49 51°15.202 2°54.434 333.3 13.3 335.3 7.2
2001-07-30 07:39:53 51°15.216 2°54.424 333 13.3 335.1 7.2
2001-07-30 07:39:57 51°15.229 2°54.414 331.7 13.3 334.4 7.3
2001-07-30 07:40:03 51°15.249 2°54.398 331.3 13.3 333.5 7.4
2001-07-30 07:40:09 51°15.269 2°54.381 330.8 13.3 333.2 7.3
2001-07-30 07:40:13 51°15.282 2°54.37 330.5 13.4 332.6 7.4
2001-07-30 07:40:17 51°15.295 2°54.36 330.7 13.4 332.8 7.5
2001-07-30 07:40:23 51°15.315 2°54.344 331.7 13.3 333.2 7.6
2001-07-30 07:40:27 51°15.329 2°54.334 332.8 13.4 334.1 7.6
2001-07-30 07:40:33 51°15.349 2°54.319 333.5 13.4 334.7 7.6
2001-07-30 07:40:38 51°15.366 2°54.306 332.5 13.5 334.6 7.6
2001-07-30 07:40:43 51°15.382 2°54.292 331.3 13.5 332.9 7.7
2001-07-30 07:40:49 51°15.402 2°54.275 329.7 13.4 331.9 7.8
2001-07-30 07:40:53 51°15.415 2°54.263 330 13.4 331.1 7.8
2001-07-30 07:40:57 51°15.428 2°54.252 329.5 13.4 331.2 7.9
2001-07-30 07:41:03 51°15.447 2°54.234 329.5 13.5 330.8 8
2001-07-30 07:41:09 51°15.467 2°54.217 329.3 13.5 330.9 8
2001-07-30 07:41:13 51°15.48 2°54.205 329.7 13.5 330.9 8.1
2001-07-30 07:41:18 51°15.496 2°54.191 329.5 13.5 331.3 8.2
2001-07-30 07:41:23 51°15.513 2°54.177 330.2 13.5 331.4 8.2
2001-07-30 07:41:29 51°15.533 2°54.16 330.2 13.5 331.7 8.3
2001-07-30 07:41:33 51°15.546 2°54.149 330.5 13.5 331.9 8.4
2001-07-30 07:41:37 51°15.559 2°54.138 330.8 13.5 332.3 8.4
2001-07-30 07:41:43 51°15.579 2°54.122 331.3 13.5 332.9 8.5
2001-07-30 07:41:47 51°15.593 2°54.111 332 13.5 333.2 8.6
2001-07-30 07:41:53 51°15.613 2°54.095 332.2 13.5 333.5 8.6
2001-07-30 07:41:58 51°15.63 2°54.081 332 13.5 333.6 8.9
2001-07-30 07:42:03 51°15.646 2°54.068 331.8 13.5 333.6 8.8
2001-07-30 07:42:09 51°15.666 2°54.052 331.3 13.5 333.1 8.9
2001-07-30 07:42:13 51°15.68 2°54.041 331 13.5 333.1 9
2001-07-30 07:42:19 51°15.7 2°54.024 330.5 13.5 332.5 9.1
2001-07-30 07:42:23 51°15.713 2°54.013 329.8 13.5 332.1 9.1
2001-07-30 07:42:27 51°15.726 2°54.002 329.8 13.5 332 9.2
2001-07-30 07:42:33 51°15.746 2°53.985 329.8 13.5 332 9.3
2001-07-30 07:42:37 51°15.759 2°53.974 329.8 13.5 331.9 9.4
2001-07-30 07:42:43 51°15.779 2°53.957 329.8 13.5 332 9.4
2001-07-30 07:42:47 51°15.792 2°53.946 330.2 13.5 332.1 9.4
2001-07-30 07:42:53 51°15.812 2°53.93 330.2 13.6 332.5 9.5
2001-07-30 07:42:57 51°15.826 2°53.919 330.8 13.6 332.8 9.5
2001-07-30 07:43:03 51°15.846 2°53.902 331.2 13.6 333.3 9.6
2001-07-30 07:43:09 51°15.866 2°53.886 331.7 13.6 333.7 9.6
2001-07-30 07:43:13 51°15.88 2°53.876 332 13.6 334.1 9.7
2001-07-30 07:43:17 51°15.893 2°53.866 332.3 13.6 334.5 9.7
2001-07-30 07:43:23 51°15.914 2°53.85 332.8 13.6 334.8 9.7
2001-07-30 07:43:27 51°15.927 2°53.84 333 13.6 335 9.8
2001-07-30 07:43:33 51°15.948 2°53.825 333.2 13.6 335.3 9.9
2001-07-30 07:43:37 51°15.962 2°53.815 333.2 13.6 335.5 10
2001-07-30 07:43:43 51°15.982 2°53.8 333.3 13.6 335.4 10
2001-07-30 07:43:49 51°16.003 2°53.785 333.2 13.6 335.3 10.1
2001-07-30 07:43:53 51°16.017 2°53.775 333.2 13.6 335.2 10.1
2001-07-30 07:43:57 51°16.03 2°53.765 332.5 13.5 335.1 10.1
2001-07-30 07:44:03 51°16.05 2°53.749 332.5 13.5 334.8 10.2
2001-07-30 07:44:09 51°16.071 2°53.734 332 13.5 334.4 10.2
2001-07-30 07:44:13 51°16.084 2°53.723 331.7 13.5 334.1 10.2
2001-07-30 07:44:17 51°16.097 2°53.713 331.5 13.5 333.8 10.3
2001-07-30 07:44:23 51°16.117 2°53.697 331.3 13.5 333.6 10.3
2001-07-30 07:44:27 51°16.131 2°53.686 331 13.5 333.5 10.3
2001-07-30 07:44:33 51°16.151 2°53.67 330.5 13.5 333 10.4
2001-07-30 07:44:38 51°16.167 2°53.656 329.2 13.5 332.4 10.4
2001-07-30 07:44:43 51°16.184 2°53.642 328.7 13.4 331.3 10.4
2001-07-30 07:44:49 51°16.203 2°53.624 328.5 13.4 330.8 10.5
2001-07-30 07:44:53 51°16.216 2°53.613 328.2 13.4 330.3 10.5
2001-07-30 07:44:57 51°16.229 2°53.601 328 13.4 330.2 10.5
2001-07-30 07:45:03 51°16.248 2°53.583 328.2 13.3 330.2 10.5
2001-07-30 07:45:07 51°16.261 2°53.572 328.2 13.3 330.3 10.6
2001-07-30 07:45:13 51°16.28 2°53.555 328.3 13.3 330.4 10.6
2001-07-30 07:45:17 51°16.293 2°53.543 328.2 13.3 330.3 10.6
2001-07-30 07:45:23 51°16.312 2°53.526 328 13.3 330.2 10.6
2001-07-30 07:45:29 51°16.331 2°53.508 327.8 13.3 330.2 10.6
2001-07-30 07:45:33 51°16.344 2°53.497 328 13.2 330.3 10.7
2001-07-30 07:45:37 51°16.357 2°53.485 328.2 13.2 330.3 10.7
2001-07-30 07:45:43 51°16.376 2°53.468 328.3 13.2 330.6 10.7
2001-07-30 07:45:49 51°16.395 2°53.451 328.3 13.3 330.6 10.7
2001-07-30 07:45:53 51°16.408 2°53.439 328 13.2 330.6 10.7
2001-07-30 07:45:57 51°16.421 2°53.427 327.8 13.2 330.4 10.7
2001-07-30 07:46:03 51°16.44 2°53.41 327.7 13.2 330.3 10.7
2001-07-30 07:46:07 51°16.452 2°53.399 328 13.2 330.6 10.7
2001-07-30 07:46:13 51°16.472 2°53.382 329.7 13.2 331.6 10.7
2001-07-30 07:46:19 51°16.491 2°53.367 330.7 13.2 332.9 10.6
2001-07-30 07:46:23 51°16.505 2°53.356 330.8 13.2 333.4 10.6
2001-07-30 07:46:27 51°16.518 2°53.346 330.8 13.2 333.4 10.5
2001-07-30 07:46:33 51°16.537 2°53.33 330.2 13.2 332.9 10.5
2001-07-30 07:46:37 51°16.55 2°53.318 329 13.3 331.9 10.5
2001-07-30 07:46:43 51°16.569 2°53.301 328 13.2 330.7 10.4
2001-07-30 07:46:47 51°16.582 2°53.289 327.7 13.2 330.4 10.4
2001-07-30 07:46:53 51°16.601 2°53.272 328 13.2 330.2 10.3
2001-07-30 07:46:59 51°16.62 2°53.255 328.2 13.2 330.4 10.2
2001-07-30 07:47:03 51°16.633 2°53.243 327.7 13.2 330.2 10.2
2001-07-30 07:47:08 51°16.649 2°53.228 327.3 13.2 329.8 10.1
2001-07-30 07:47:13 51°16.664 2°53.213 326.8 13.2 329.1 10
2001-07-30 07:47:17 51°16.677 2°53.201 326.5 13.2 328.8 10
2001-07-30 07:47:23 51°16.695 2°53.183 327.3 13.2 328.9 9.9
2001-07-30 07:47:27 51°16.708 2°53.171 327.7 13.2 329.1 9.9
2001-07-30 07:47:33 51°16.727 2°53.153 327 13.2 328.6 9.8
2001-07-30 07:47:37 51°16.739 2°53.14 326.5 13.2 328 9.7
2001-07-30 07:47:43 51°16.758 2°53.121 326.5 13.2 327.9 9.5
2001-07-30 07:47:48 51°16.773 2°53.106 327.2 13.2 328.1 9.4
2001-07-30 07:47:53 51°16.789 2°53.091 327.2 13.2 328.8 9.3
2001-07-30 07:47:59 51°16.808 2°53.073 327.3 13.2 328.7 9
2001-07-30 07:48:03 51°16.82 2°53.061 327.3 13.2 329.1 8.3
2001-07-30 07:48:07 51°16.833 2°53.049 327.5 13.2 329.3 7.7
2001-07-30 07:48:13 51°16.852 2°53.031 328.2 13.2 329.6 7.2
2001-07-30 07:48:19 51°16.871 2°53.014 328.2 13.2 330 7
2001-07-30 07:48:23 51°16.883 2°53.002 328 13.1 329.5 7
2001-07-30 07:48:27 51°16.896 2°52.99 327.2 13.1 329 6.9
2001-07-30 07:48:33 51°16.914 2°52.971 326.3 13.2 328.2 6.9
2001-07-30 07:48:38 51°16.93 2°52.956 326 13.2 327.7 7
2001-07-30 07:48:43 51°16.945 2°52.94 325.8 13.3 327.3 7.1
2001-07-30 07:48:47 51°16.957 2°52.927 325.8 13.3 327.3 7.1
2001-07-30 07:48:53 51°16.976 2°52.908 326.7 13.3 328 7.3
2001-07-30 07:48:57 51°16.989 2°52.896 327.8 13.3 328.9 7.4
2001-07-30 07:49:03 51°17.008 2°52.878 328.2 13.4 329.5 7.7
2001-07-30 07:49:09 51°17.028 2°52.86 328.7 13.4 329.8 8.1
2001-07-30 07:49:13 51°17.041 2°52.848 329.3 13.5 330.4 8.1
2001-07-30 07:49:17 51°17.054 2°52.837 329.3 13.5 330.5 8.3
2001-07-30 07:49:23 51°17.073 2°52.818 328.2 13.5 329.6 8.5
2001-07-30 07:49:27 51°17.086 2°52.806 327.8 13.5 329.3 8.5
2001-07-30 07:49:33 51°17.105 2°52.788 328.3 13.5 329.5 8.7
2001-07-30 07:49:38 51°17.122 2°52.773 329 13.5 329.9 8.7
2001-07-30 07:49:43 51°17.138 2°52.759 329.3 13.5 330.5 8.5
2001-07-30 07:49:49 51°17.157 2°52.74 328.5 13.5 329.5 8.3
2001-07-30 07:49:53 51°17.17 2°52.727 326.5 13.4 328 8.1
2001-07-30 07:49:57 51°17.182 2°52.713 324.5 13.4 325.9 8.1
2001-07-30 07:50:03 51°17.199 2°52.692 322 13.3 323.6 8.1
2001-07-30 07:50:09 51°17.216 2°52.67 320.2 13.2 322.1 8.1
2001-07-30 07:50:13 51°17.228 2°52.655 320.2 13.2 321.2 8.1
2001-07-30 07:50:17 51°17.239 2°52.641 320 13.2 321.3 8.2
2001-07-30 07:50:23 51°17.256 2°52.618 319.3 13.2 320.9 8.2
2001-07-30 07:50:27 51°17.267 2°52.603 318.3 13.2 320.4 8.3
2001-07-30 07:50:33 51°17.284 2°52.58 317.5 13.2 319.1 8.4
2001-07-30 07:50:38 51°17.297 2°52.56 316.2 13.2 318.1 8.5
2001-07-30 07:50:43 51°17.311 2°52.541 315.7 13.2 317.3 8.6
2001-07-30 07:50:49 51°17.327 2°52.517 315.2 13.2 316.7 8.6
2001-07-30 07:50:53 51°17.337 2°52.5 314.8 13.2 316.4 8.6
2001-07-30 07:50:57 51°17.348 2°52.484 314.5 13.2 316.2 8.7
2001-07-30 07:51:03 51°17.363 2°52.46 314.7 13.2 316.2 8.7
2001-07-30 07:51:09 51°17.38 2°52.436 315.5 13.2 316.6 8.7
2001-07-30 07:51:13 51°17.391 2°52.421 316.2 13.2 317.4 8.8
2001-07-30 07:51:19 51°17.407 2°52.397 315.8 13.2 317.3 8.9
2001-07-30 07:51:23 51°17.417 2°52.38 315 13.2 316.7 8.9
2001-07-30 07:51:29 51°17.433 2°52.356 314.2 13.2 315.7 8.8
2001-07-30 07:51:33 51°17.443 2°52.34 314.2 13.2 315.7 8.9
2001-07-30 07:51:39 51°17.459 2°52.316 315 13.2 316.2 8.8
2001-07-30 07:51:43 51°17.47 2°52.3 315.8 13.2 316.8 8.9
2001-07-30 07:51:47 51°17.481 2°52.284 316 13.2 316.9 8.9
2001-07-30 07:51:53 51°17.497 2°52.26 315.7 13.2 316.9 8.9
2001-07-30 07:51:58 51°17.51 2°52.24 315.3 13.2 316.5 9
2001-07-30 07:52:03 51°17.523 2°52.219 314.5 13.2 315.8 9
2001-07-30 07:52:09 51°17.538 2°52.195 314 13.1 315.2 8.9
2001-07-30 07:52:13 51°17.548 2°52.178 313.3 13.1 314.8 8.9
2001-07-30 07:52:17 51°17.559 2°52.161 313 13.1 314.4 9
2001-07-30 07:52:23 51°17.574 2°52.136 312.5 13.1 313.9 9
2001-07-30 07:52:27 51°17.584 2°52.119 311.8 13.1 313.3 9.1
2001-07-30 07:52:33 51°17.599 2°52.093 311.2 13.1 312.5 9
2001-07-30 07:52:39 51°17.614 2°52.067 310.8 13.1 312 8.9
2001-07-30 07:52:43 51°17.623 2°52.05 310.5 13.1 311.8 8.9
2001-07-30 07:52:47 51°17.633 2°52.033 310.5 13.1 311.8 9
2001-07-30 07:52:53 51°17.648 2°52.006 310.2 13.1 311.5 8.9
2001-07-30 07:52:57 51°17.657 2°51.988 309.3 13.1 310.7 8.8
2001-07-30 07:53:03 51°17.671 2°51.962 308.5 13.1 309.8 8.8
2001-07-30 07:53:09 51°17.685 2°51.935 308 13.1 309.5 8.8
2001-07-30 07:53:13 51°17.694 2°51.917 307.8 13.1 309.3 8.7
2001-07-30 07:53:19 51°17.707 2°51.89 307.3 13.1 308.8 8.9
2001-07-30 07:53:23 51°17.715 2°51.871 305.2 13 307.2 8.7
2001-07-30 07:53:27 51°17.723 2°51.852 302.3 12.9 304.4 8.6
2001-07-30 07:53:33 51°17.733 2°51.822 299.2 12.8 301.1 8.5
2001-07-30 07:53:37 51°17.739 2°51.802 295 12.7 297.9 8.8
2001-07-30 07:53:43 51°17.747 2°51.771 291.7 12.6 293.1 8.7
2001-07-30 07:53:49 51°17.753 2°51.739 288 12.5 289.8 8.6
2001-07-30 07:53:53 51°17.757 2°51.718 285.2 12.4 286.6 8.6
2001-07-30 07:53:57 51°17.761 2°51.697 284.3 12.4 285.5 8.6
2001-07-30 07:54:03 51°17.766 2°51.665 284.2 12.4 285 8.6
2001-07-30 07:54:07 51°17.77 2°51.644 284.7 12.4 285.5 8.6
2001-07-30 07:54:13 51°17.776 2°51.613 286.5 12.4 286.8 8.6
2001-07-30 07:54:19 51°17.783 2°51.581 287.3 12.4 288 8.7
2001-07-30 07:54:23 51°17.787 2°51.561 288.5 12.5 289.1 8.7
2001-07-30 07:54:29 51°17.795 2°51.529 289.7 12.6 290.5 8.5
2001-07-30 07:54:33 51°17.8 2°51.509 290.5 12.6 291.1 8.7
2001-07-30 07:54:37 51°17.805 2°51.488 290.2 12.6 291.1 8.7
2001-07-30 07:54:43 51°17.812 2°51.456 289.3 12.6 290.5 8.7
2001-07-30 07:54:47 51°17.817 2°51.435 288.5 12.6 289.8 8.7
2001-07-30 07:54:53 51°17.824 2°51.404 288.3 12.6 289.4 8.9
2001-07-30 07:54:59 51°17.831 2°51.372 288.7 12.6 289.5 8.8
2001-07-30 07:55:03 51°17.835 2°51.351 289 12.6 289.8 8.9
2001-07-30 07:55:07 51°17.84 2°51.33 288.5 12.7 289.6 8.9
2001-07-30 07:55:13 51°17.847 2°51.298 287.7 12.6 289 9
2001-07-30 07:55:19 51°17.853 2°51.266 287.5 12.6 288.6 9.1
2001-07-30 07:55:23 51°17.858 2°51.245 287.3 12.6 288.4 9.1
2001-07-30 07:55:29 51°17.865 2°51.214 287.5 12.6 288.5 9.2
2001-07-30 07:55:33 51°17.87 2°51.193 288.8 12.5 289.5 9.3
2001-07-30 07:55:39 51°17.877 2°51.162 290.2 12.6 291 9.4
2001-07-30 07:55:43 51°17.883 2°51.141 290.7 12.6 291.5 9.5
2001-07-30 07:55:47 51°17.887 2°51.12 289.5 12.6 291.3 9.6
2001-07-30 07:55:53 51°17.894 2°51.089 287.7 12.6 289.5 9.7
2001-07-30 07:55:57 51°17.898 2°51.068 286.2 12.5 287.9 9.9
2001-07-30 07:56:03 51°17.904 2°51.036 285.5 12.5 287 9.9
2001-07-30 07:56:07 51°17.908 2°51.015 285.7 12.5 286.8 10.1
2001-07-30 07:56:13 51°17.915 2°50.983 286.3 12.5 287.5 10.2
2001-07-30 07:56:19 51°17.922 2°50.951 287.5 12.6 288.5 10.3
2001-07-30 07:56:23 51°17.926 2°50.93 288.7 12.6 289.7 10.3
2001-07-30 07:56:27 51°17.932 2°50.909 289.7 12.7 290.7 10.6
2001-07-30 07:56:33 51°17.94 2°50.878 290.7 12.7 291.9 10.5
2001-07-30 07:56:37 51°17.945 2°50.857 291.7 12.7 292.6 10.7
2001-07-30 07:56:43 51°17.954 2°50.826 292.5 12.8 293.9 10.7
2001-07-30 07:56:49 51°17.963 2°50.796 293.5 12.8 294.7 10.9
2001-07-30 07:56:53 51°17.969 2°50.775 294.3 12.8 295.4 10.8
2001-07-30 07:56:57 51°17.976 2°50.754 294 12.8 295.3 11
2001-07-30 07:57:03 51°17.984 2°50.723 292.5 12.8 294.5 11
2001-07-30 07:57:07 51°17.99 2°50.703 291.8 12.8 293.8 11.1
2001-07-30 07:57:13 51°17.998 2°50.671 291.3 12.8 293.1 11.2
2001-07-30 07:57:19 51°18.006 2°50.64 291.5 12.8 293 11.2
2001-07-30 07:57:23 51°18.012 2°50.62 292 12.8 293.6 11.2
2001-07-30 07:57:29 51°18.021 2°50.589 292.5 12.8 294.3 11.4
2001-07-30 07:57:33 51°18.027 2°50.568 292.8 12.8 294.5 11.5
2001-07-30 07:57:37 51°18.033 2°50.547 293.2 12.8 294.9 11.4
2001-07-30 07:57:43 51°18.042 2°50.517 293.7 12.8 295.3 11.3
2001-07-30 07:57:47 51°18.048 2°50.496 294.2 12.8 295.7 11.5
2001-07-30 07:57:53 51°18.058 2°50.466 294.5 12.8 295.9 11.7
2001-07-30 07:57:59 51°18.067 2°50.435 294.5 12.8 296 11.6
2001-07-30 07:58:03 51°18.074 2°50.415 295 12.8 296.4 11.7
2001-07-30 07:58:07 51°18.081 2°50.395 295.7 12.8 296.9 11.8